Terminal Aerodrome Forecast
Issued by NWS Charleston, WV

Current Version | Previous Version | Graphics & Text | Print | Product List | Glossary On
Versions: 1 2 3 4 5 6 7 8 9 10 11 12 13 14 15 16 17 18 19 20 21 22 23 24 25 26 27 28 29
704
FTUS41 KRLX 222335 AAB
TAFEKN
TAF AMD
KEKN 222335Z 2300/2324 24006KT P6SM VCTS BKN070CB
      TEMPO 2302/2305 3SM TSRA OVC030CB
     FM230500 25004KT 5SM SHRA BR OVC010
     FM231300 33004KT P6SM BKN015
     FM231800 30005KT P6SM SCT025=

USA.gov is the U.S. government's official web portal to all federal, state and local government web resources and services.